Estación Meteorológica Peña el Pijo (Robertgarden) [ 01/30/23 15:19:43 CET ]

Fecha Hora Presion(HPa) Temp (°C) Humedad % Rocio (°C) Viento ( m/s) Direccion Lluvia 1Hora(mm) Lluvia 24H(mm) LLuvia Total(mm)
2012-Mar-19 01:01:19 1016.200 1.8 62 -4.7         153.32
2012-Mar-19 02:01:46 1016.000 0.4 65 -5.4         153.32
2012-Mar-19 03:01:44 1015.700 -0.2 67 -5.6         153.32
2012-Mar-19 04:04:24 1015.200 -0.4 69 -5.4         153.32
2012-Mar-19 05:01:13 1015.600 -0.9 69 -5.9         153.32
2012-Mar-19 06:01:18 1015.600 -1.8 71 -6.3         153.32
2012-Mar-19 07:01:16 1016.000 -2.1 72 -6.5         153.32
2012-Mar-19 08:01:11 1016.200 -1.8 71 -6.3         153.32
2012-Mar-19 09:01:13 1016.100 1.8 64 -4.3         153.32
2012-Mar-19 10:01:17 1016.200 7.3 44 -4.2         153.32
2012-Mar-19 11:01:13 1016.200 9.6 35 -5.2         153.32
2012-Mar-19 12:01:13 1015.600 12.8 29 -4.9         153.32
2012-Mar-19 13:01:12 1015.300 14.7 26 -4.8 1.4 N     153.32
2012-Mar-19 14:01:16 1014.800 12.7 29 -5.0         153.32
2012-Mar-19 15:01:13 1014.100 15.4 26 -4.2         153.32
2012-Mar-19 16:01:12 1013.700 11.3 32 -4.9 2.1 NNE     153.32
2012-Mar-19 17:01:18 1013.600 10.9 34 -4.5         153.32
2012-Mar-19 18:01:17 1013.900 9.1 41 -3.5 1.5 E     153.32
2012-Mar-19 19:01:14 1014.600 8.4 48 -2.0         153.32
2012-Mar-19 20:01:17 1015.100 5.2 71 0.4         153.32
2012-Mar-19 21:01:12 1016.200 3.3 80 0.2         153.32
2012-Mar-19 22:01:14 1016.600 1.2 83 -1.4         153.32
2012-Mar-19 23:01:13 1016.700 0.5 84 -1.9         153.32

Temperatura Máxima:15°    Temperatura Mínima:-2°
Presión Máxima:1016.700 Hpa    Presión Mínima:1013.600 Hpa


Volver